sensor_id;sensor_type;location;lat;lon;timestamp;pressure;altitude;pressure_sealevel;temperature;humidity
77017;BME280;65949;53.132;17.930;2023-05-10T00:02:02;101460.17;;;9.70;46.78
77017;BME280;65949;53.132;17.930;2023-05-10T00:04:28;101460.21;;;9.69;46.68
77017;BME280;65949;53.132;17.930;2023-05-10T00:06:55;101460.42;;;9.67;46.94
77017;BME280;65949;53.132;17.930;2023-05-10T00:09:21;101459.08;;;9.66;46.83
77017;BME280;65949;53.132;17.930;2023-05-10T00:11:48;101460.06;;;9.63;46.93
77017;BME280;65949;53.132;17.930;2023-05-10T00:14:15;101460.16;;;9.61;46.85
77017;BME280;65949;53.132;17.930;2023-05-10T00:16:41;101458.96;;;9.58;47.09
77017;BME280;65949;53.132;17.930;2023-05-10T00:19:08;101457.14;;;9.56;46.88
77017;BME280;65949;53.132;17.930;2023-05-10T00:21:35;101453.53;;;9.53;47.24
77017;BME280;65949;53.132;17.930;2023-05-10T00:24:01;101453.02;;;9.51;47.04
77017;BME280;65949;53.132;17.930;2023-05-10T00:26:28;101452.03;;;9.49;47.16
77017;BME280;65949;53.132;17.930;2023-05-10T00:28:55;101449.05;;;9.46;47.36
77017;BME280;65949;53.132;17.930;2023-05-10T00:31:22;101447.39;;;9.42;47.44
77017;BME280;65949;53.132;17.930;2023-05-10T00:33:48;101442.36;;;9.38;47.33
77017;BME280;65949;53.132;17.930;2023-05-10T00:36:15;101434.48;;;9.35;47.68
77017;BME280;65949;53.132;17.930;2023-05-10T00:38:41;101437.02;;;9.32;47.54
77017;BME280;65949;53.132;17.930;2023-05-10T00:41:08;101439.30;;;9.30;47.60
77017;BME280;65949;53.132;17.930;2023-05-10T00:43:35;101436.45;;;9.28;47.60
77017;BME280;65949;53.132;17.930;2023-05-10T00:46:04;101434.98;;;9.25;47.60
77017;BME280;65949;53.132;17.930;2023-05-10T00:48:31;101432.21;;;9.23;47.82
77017;BME280;65949;53.132;17.930;2023-05-10T00:50:58;101427.95;;;9.21;48.01
77017;BME280;65949;53.132;17.930;2023-05-10T00:53:25;101428.26;;;9.20;48.21
77017;BME280;65949;53.132;17.930;2023-05-10T00:55:53;101426.07;;;9.19;47.76
77017;BME280;65949;53.132;17.930;2023-05-10T00:58:19;101427.14;;;9.17;48.13
77017;BME280;65949;53.132;17.930;2023-05-10T01:00:46;101424.58;;;9.15;48.38
77017;BME280;65949;53.132;17.930;2023-05-10T01:03:14;101425.25;;;9.12;48.04
77017;BME280;65949;53.132;17.930;2023-05-10T01:05:40;101425.22;;;9.09;48.52
77017;BME280;65949;53.132;17.930;2023-05-10T01:08:07;101421.39;;;9.06;48.61
77017;BME280;65949;53.132;17.930;2023-05-10T01:10:35;101423.05;;;9.02;48.64
77017;BME280;65949;53.132;17.930;2023-05-10T01:13:02;101423.83;;;8.97;48.49
77017;BME280;65949;53.132;17.930;2023-05-10T01:15:30;101422.13;;;8.94;48.50
77017;BME280;65949;53.132;17.930;2023-05-10T01:17:57;101419.41;;;8.91;48.53
77017;BME280;65949;53.132;17.930;2023-05-10T01:20:28;101418.55;;;8.87;48.81
77017;BME280;65949;53.132;17.930;2023-05-10T01:26:24;101418.05;;;8.80;48.90
77017;BME280;65949;53.132;17.930;2023-05-10T01:29:22;101415.00;;;8.75;49.48
77017;BME280;65949;53.132;17.930;2023-05-10T01:32:21;101413.41;;;8.69;49.51
77017;BME280;65949;53.132;17.930;2023-05-10T01:35:02;101410.53;;;8.63;49.81
77017;BME280;65949;53.132;17.930;2023-05-10T01:37:49;101409.98;;;8.56;49.84
77017;BME280;65949;53.132;17.930;2023-05-10T01:43:01;101403.24;;;8.40;49.89
77017;BME280;65949;53.132;17.930;2023-05-10T01:45:37;101403.24;;;8.34;50.48
77017;BME280;65949;53.132;17.930;2023-05-10T01:48:08;101399.73;;;8.27;50.57
77017;BME280;65949;53.132;17.930;2023-05-10T01:50:38;101394.96;;;8.20;51.25
77017;BME280;65949;53.132;17.930;2023-05-10T01:53:09;101399.25;;;8.14;51.33
77017;BME280;65949;53.132;17.930;2023-05-10T01:55:46;101399.86;;;8.06;51.36
77017;BME280;65949;53.132;17.930;2023-05-10T01:58:27;101398.29;;;8.01;51.68
77017;BME280;65949;53.132;17.930;2023-05-10T02:00:55;101398.83;;;7.96;51.73
77017;BME280;65949;53.132;17.930;2023-05-10T02:03:25;101396.31;;;7.91;52.11
77017;BME280;65949;53.132;17.930;2023-05-10T02:05:54;101395.36;;;7.87;52.14
77017;BME280;65949;53.132;17.930;2023-05-10T02:08:22;101389.26;;;7.84;51.85
77017;BME280;65949;53.132;17.930;2023-05-10T02:10:52;101389.64;;;7.80;52.11
77017;BME280;65949;53.132;17.930;2023-05-10T02:13:21;101383.77;;;7.76;52.16
77017;BME280;65949;53.132;17.930;2023-05-10T02:15:50;101382.81;;;7.74;52.38
77017;BME280;65949;53.132;17.930;2023-05-10T02:18:18;101381.98;;;7.70;52.32
77017;BME280;65949;53.132;17.930;2023-05-10T02:20:46;101378.98;;;7.67;52.69
77017;BME280;65949;53.132;17.930;2023-05-10T02:23:13;101380.88;;;7.64;52.79
77017;BME280;65949;53.132;17.930;2023-05-10T02:25:43;101376.51;;;7.62;52.88
77017;BME280;65949;53.132;17.930;2023-05-10T02:28:11;101373.39;;;7.58;52.90
77017;BME280;65949;53.132;17.930;2023-05-10T02:30:38;101373.39;;;7.55;52.85
77017;BME280;65949;53.132;17.930;2023-05-10T02:33:14;101370.64;;;7.53;53.09
77017;BME280;65949;53.132;17.930;2023-05-10T02:35:41;101371.83;;;7.48;53.15
77017;BME280;65949;53.132;17.930;2023-05-10T02:38:09;101373.89;;;7.44;53.52
77017;BME280;65949;53.132;17.930;2023-05-10T02:40:38;101375.59;;;7.41;53.49
77017;BME280;65949;53.132;17.930;2023-05-10T02:43:09;101372.76;;;7.38;53.87
77017;BME280;65949;53.132;17.930;2023-05-10T02:45:40;101370.78;;;7.34;54.08
77017;BME280;65949;53.132;17.930;2023-05-10T02:48:09;101373.39;;;7.31;53.88
77017;BME280;65949;53.132;17.930;2023-05-10T02:50:37;101370.95;;;7.29;53.64
77017;BME280;65949;53.132;17.930;2023-05-10T02:53:18;101372.53;;;7.27;54.19
77017;BME280;65949;53.132;17.930;2023-05-10T02:55:51;101369.59;;;7.24;54.66
77017;BME280;65949;53.132;17.930;2023-05-10T02:58:19;101368.85;;;7.22;54.33
77017;BME280;65949;53.132;17.930;2023-05-10T03:00:45;101370.65;;;7.21;54.18
77017;BME280;65949;53.132;17.930;2023-05-10T03:03:12;101371.63;;;7.19;54.33
77017;BME280;65949;53.132;17.930;2023-05-10T03:05:39;101370.23;;;7.18;54.50
77017;BME280;65949;53.132;17.930;2023-05-10T03:08:06;101369.94;;;7.17;54.65
77017;BME280;65949;53.132;17.930;2023-05-10T03:10:40;101376.38;;;7.17;54.41
77017;BME280;65949;53.132;17.930;2023-05-10T03:13:31;101376.98;;;7.18;54.75
77017;BME280;65949;53.132;17.930;2023-05-10T03:16:10;101375.78;;;7.19;54.82
77017;BME280;65949;53.132;17.930;2023-05-10T03:19:02;101375.49;;;7.20;54.51
77017;BME280;65949;53.132;17.930;2023-05-10T03:21:35;101373.48;;;7.21;54.93
77017;BME280;65949;53.132;17.930;2023-05-10T03:24:07;101371.61;;;7.22;54.56
77017;BME280;65949;53.132;17.930;2023-05-10T03:26:34;101372.23;;;7.23;54.72
77017;BME280;65949;53.132;17.930;2023-05-10T03:29:08;101367.71;;;7.25;54.45
77017;BME280;65949;53.132;17.930;2023-05-10T03:31:35;101366.80;;;7.29;54.78
77017;BME280;65949;53.132;17.930;2023-05-10T03:34:02;101367.38;;;7.31;54.70
77017;BME280;65949;53.132;17.930;2023-05-10T03:36:28;101367.23;;;7.33;54.59
77017;BME280;65949;53.132;17.930;2023-05-10T03:38:55;101367.22;;;7.36;54.78
77017;BME280;65949;53.132;17.930;2023-05-10T03:41:22;101370.60;;;7.41;54.63
77017;BME280;65949;53.132;17.930;2023-05-10T03:43:49;101363.52;;;7.44;54.78
77017;BME280;65949;53.132;17.930;2023-05-10T03:46:15;101363.07;;;7.48;54.79
77017;BME280;65949;53.132;17.930;2023-05-10T03:48:42;101363.71;;;7.52;54.59
77017;BME280;65949;53.132;17.930;2023-05-10T03:51:09;101366.45;;;7.58;54.30
77017;BME280;65949;53.132;17.930;2023-05-10T03:53:35;101364.55;;;7.63;54.21
77017;BME280;65949;53.132;17.930;2023-05-10T03:56:02;101364.06;;;7.69;54.41
77017;BME280;65949;53.132;17.930;2023-05-10T03:58:29;101364.31;;;7.78;53.85
77017;BME280;65949;53.132;17.930;2023-05-10T04:00:55;101365.06;;;8.48;52.87
77017;BME280;65949;53.132;17.930;2023-05-10T04:03:22;101364.54;;;9.86;50.47
77017;BME280;65949;53.132;17.930;2023-05-10T04:05:58;101359.07;;;10.86;48.42
77017;BME280;65949;53.132;17.930;2023-05-10T04:08:27;101358.55;;;11.82;46.54
77017;BME280;65949;53.132;17.930;2023-05-10T04:10:53;101357.38;;;12.61;45.03
77017;BME280;65949;53.132;17.930;2023-05-10T04:13:20;101358.35;;;12.87;44.31
77017;BME280;65949;53.132;17.930;2023-05-10T04:15:47;101361.75;;;12.57;43.81
77017;BME280;65949;53.132;17.930;2023-05-10T04:18:14;101358.13;;;13.33;42.22
77017;BME280;65949;53.132;17.930;2023-05-10T04:20:40;101354.66;;;13.94;41.29
77017;BME280;65949;53.132;17.930;2023-05-10T04:23:07;101355.30;;;14.46;40.47
77017;BME280;65949;53.132;17.930;2023-05-10T04:25:34;101356.63;;;14.97;39.31
77017;BME280;65949;53.132;17.930;2023-05-10T04:32:21;101352.38;;;15.89;36.96
77017;BME280;65949;53.132;17.930;2023-05-10T04:34:47;101352.64;;;16.21;36.58
77017;BME280;65949;53.132;17.930;2023-05-10T04:37:14;101350.36;;;16.61;36.34
77017;BME280;65949;53.132;17.930;2023-05-10T04:39:41;101348.51;;;16.88;35.51
77017;BME280;65949;53.132;17.930;2023-05-10T04:42:07;101344.31;;;17.19;34.78
77017;BME280;65949;53.132;17.930;2023-05-10T04:44:34;101344.95;;;17.41;34.66
77017;BME280;65949;53.132;17.930;2023-05-10T04:47:01;101342.39;;;17.68;34.33
77017;BME280;65949;53.132;17.930;2023-05-10T04:49:29;101341.77;;;17.96;33.99
77017;BME280;65949;53.132;17.930;2023-05-10T04:51:56;101343.43;;;18.17;32.86
77017;BME280;65949;53.132;17.930;2023-05-10T04:54:22;101349.06;;;18.22;33.19
77017;BME280;65949;53.132;17.930;2023-05-10T04:56:49;101348.48;;;18.42;32.82
77017;BME280;65949;53.132;17.930;2023-05-10T04:59:16;101344.59;;;18.55;32.61
77017;BME280;65949;53.132;17.930;2023-05-10T05:01:42;101344.23;;;18.71;32.25
77017;BME280;65949;53.132;17.930;2023-05-10T05:04:09;101343.08;;;18.83;32.14
77017;BME280;65949;53.132;17.930;2023-05-10T05:06:35;101339.46;;;18.69;32.48
77017;BME280;65949;53.132;17.930;2023-05-10T05:09:02;101340.77;;;18.65;31.84
77017;BME280;65949;53.132;17.930;2023-05-10T05:11:29;101335.38;;;17.40;33.09
77017;BME280;65949;53.132;17.930;2023-05-10T05:13:55;101331.27;;;16.96;33.64
77017;BME280;65949;53.132;17.930;2023-05-10T05:16:22;101330.79;;;17.39;33.06
77017;BME280;65949;53.132;17.930;2023-05-10T05:18:48;101330.59;;;17.59;33.00
77017;BME280;65949;53.132;17.930;2023-05-10T05:21:16;101333.54;;;17.96;32.83
77017;BME280;65949;53.132;17.930;2023-05-10T05:23:44;101333.53;;;18.20;32.09
77017;BME280;65949;53.132;17.930;2023-05-10T05:26:10;101330.55;;;18.33;32.06
77017;BME280;65949;53.132;17.930;2023-05-10T05:28:37;101331.68;;;18.43;31.69
77017;BME280;65949;53.132;17.930;2023-05-10T05:31:05;101333.20;;;18.47;31.60
77017;BME280;65949;53.132;17.930;2023-05-10T05:33:32;101340.31;;;18.49;31.83
77017;BME280;65949;53.132;17.930;2023-05-10T05:36:03;101334.13;;;18.63;31.45
77017;BME280;65949;53.132;17.930;2023-05-10T05:38:30;101334.86;;;18.84;31.52
77017;BME280;65949;53.132;17.930;2023-05-10T05:40:57;101335.13;;;19.03;31.21
77017;BME280;65949;53.132;17.930;2023-05-10T05:43:24;101330.35;;;19.04;30.84
77017;BME280;65949;53.132;17.930;2023-05-10T05:45:55;101329.56;;;19.12;30.70
77017;BME280;65949;53.132;17.930;2023-05-10T05:48:24;101326.85;;;19.02;30.08
77017;BME280;65949;53.132;17.930;2023-05-10T05:50:54;101327.79;;;19.00;30.79
77017;BME280;65949;53.132;17.930;2023-05-10T05:53:21;101325.45;;;19.12;30.77
77017;BME280;65949;53.132;17.930;2023-05-10T05:55:53;101326.86;;;19.22;30.40
77017;BME280;65949;53.132;17.930;2023-05-10T05:58:30;101324.60;;;19.25;30.23
77017;BME280;65949;53.132;17.930;2023-05-10T06:00:56;101320.23;;;19.17;30.40
77017;BME280;65949;53.132;17.930;2023-05-10T06:03:23;101319.64;;;19.07;30.24
77017;BME280;65949;53.132;17.930;2023-05-10T06:05:50;101323.02;;;18.91;30.15
77017;BME280;65949;53.132;17.930;2023-05-10T06:08:17;101321.77;;;18.69;30.65
77017;BME280;65949;53.132;17.930;2023-05-10T06:10:43;101321.71;;;18.52;31.15
77017;BME280;65949;53.132;17.930;2023-05-10T06:13:10;101318.44;;;18.35;31.26
77017;BME280;65949;53.132;17.930;2023-05-10T06:15:38;101321.31;;;17.91;31.67
77017;BME280;65949;53.132;17.930;2023-05-10T06:18:04;101328.14;;;17.51;32.46
77017;BME280;65949;53.132;17.930;2023-05-10T06:20:32;101325.35;;;17.14;32.82
77017;BME280;65949;53.132;17.930;2023-05-10T06:22:58;101325.61;;;16.81;33.15
77017;BME280;65949;53.132;17.930;2023-05-10T06:25:25;101321.27;;;16.50;33.70
77017;BME280;65949;53.132;17.930;2023-05-10T06:27:52;101326.97;;;16.29;34.19
77017;BME280;65949;53.132;17.930;2023-05-10T06:30:26;101326.08;;;16.11;34.45
77017;BME280;65949;53.132;17.930;2023-05-10T06:32:54;101325.34;;;15.94;34.74
77017;BME280;65949;53.132;17.930;2023-05-10T06:35:21;101323.30;;;15.80;34.94
77017;BME280;65949;53.132;17.930;2023-05-10T06:37:48;101323.55;;;15.72;35.17
77017;BME280;65949;53.132;17.930;2023-05-10T06:40:15;101326.25;;;15.68;35.36
77017;BME280;65949;53.132;17.930;2023-05-10T06:42:42;101323.73;;;15.67;35.24
77017;BME280;65949;53.132;17.930;2023-05-10T06:45:10;101325.41;;;15.67;35.77
77017;BME280;65949;53.132;17.930;2023-05-10T06:47:37;101319.86;;;15.73;35.63
77017;BME280;65949;53.132;17.930;2023-05-10T06:50:04;101323.23;;;15.81;35.79
77017;BME280;65949;53.132;17.930;2023-05-10T06:52:31;101318.48;;;15.89;35.61
77017;BME280;65949;53.132;17.930;2023-05-10T06:54:58;101320.90;;;15.98;35.81
77017;BME280;65949;53.132;17.930;2023-05-10T06:57:24;101320.55;;;16.04;35.44
77017;BME280;65949;53.132;17.930;2023-05-10T06:59:52;101320.00;;;16.07;35.47
77017;BME280;65949;53.132;17.930;2023-05-10T07:02:18;101323.06;;;16.15;35.30
77017;BME280;65949;53.132;17.930;2023-05-10T07:04:47;101319.56;;;16.21;35.03
77017;BME280;65949;53.132;17.930;2023-05-10T07:07:14;101318.94;;;16.28;35.23
77017;BME280;65949;53.132;17.930;2023-05-10T07:09:41;101319.09;;;16.35;34.82
77017;BME280;65949;53.132;17.930;2023-05-10T07:12:08;101318.20;;;16.34;34.74
77017;BME280;65949;53.132;17.930;2023-05-10T07:14:36;101314.55;;;16.37;35.13
77017;BME280;65949;53.132;17.930;2023-05-10T07:17:04;101319.48;;;16.44;34.42
77017;BME280;65949;53.132;17.930;2023-05-10T07:19:31;101314.14;;;16.49;34.54
77017;BME280;65949;53.132;17.930;2023-05-10T07:21:59;101310.95;;;16.51;34.45
77017;BME280;65949;53.132;17.930;2023-05-10T07:24:26;101310.41;;;16.54;34.21
77017;BME280;65949;53.132;17.930;2023-05-10T07:26:53;101304.84;;;16.53;34.22
77017;BME280;65949;53.132;17.930;2023-05-10T07:29:20;101305.23;;;16.55;34.41
77017;BME280;65949;53.132;17.930;2023-05-10T07:31:47;101309.61;;;16.61;34.52
77017;BME280;65949;53.132;17.930;2023-05-10T07:34:14;101308.48;;;16.70;34.52
77017;BME280;65949;53.132;17.930;2023-05-10T07:36:41;101308.34;;;16.80;34.61
77017;BME280;65949;53.132;17.930;2023-05-10T07:39:08;101310.91;;;16.93;34.33
77017;BME280;65949;53.132;17.930;2023-05-10T07:41:34;101315.17;;;16.99;34.06
77017;BME280;65949;53.132;17.930;2023-05-10T07:44:01;101310.67;;;16.96;33.70
77017;BME280;65949;53.132;17.930;2023-05-10T07:46:27;101311.88;;;16.96;33.87
77017;BME280;65949;53.132;17.930;2023-05-10T07:48:54;101309.15;;;17.01;33.85
77017;BME280;65949;53.132;17.930;2023-05-10T07:51:21;101308.05;;;17.00;33.51
77017;BME280;65949;53.132;17.930;2023-05-10T07:53:48;101311.88;;;17.02;33.70
77017;BME280;65949;53.132;17.930;2023-05-10T07:56:25;101308.48;;;17.05;33.50
77017;BME280;65949;53.132;17.930;2023-05-10T07:58:59;101313.98;;;17.08;33.50
77017;BME280;65949;53.132;17.930;2023-05-10T08:01:26;101309.31;;;17.11;33.72
77017;BME280;65949;53.132;17.930;2023-05-10T08:03:56;101305.64;;;17.15;33.69
77017;BME280;65949;53.132;17.930;2023-05-10T08:06:22;101304.85;;;17.25;33.51
77017;BME280;65949;53.132;17.930;2023-05-10T08:08:49;101310.66;;;17.32;33.40
77017;BME280;65949;53.132;17.930;2023-05-10T08:11:18;101305.16;;;17.34;32.98
77017;BME280;65949;53.132;17.930;2023-05-10T08:13:45;101305.48;;;17.34;33.04
77017;BME280;65949;53.132;17.930;2023-05-10T08:16:11;101303.40;;;17.37;32.81
77017;BME280;65949;53.132;17.930;2023-05-10T08:18:39;101305.59;;;17.41;33.04
77017;BME280;65949;53.132;17.930;2023-05-10T08:21:06;101306.21;;;17.47;32.81
77017;BME280;65949;53.132;17.930;2023-05-10T08:23:32;101302.54;;;17.50;32.49
77017;BME280;65949;53.132;17.930;2023-05-10T08:25:59;101299.61;;;17.51;32.48
77017;BME280;65949;53.132;17.930;2023-05-10T08:28:26;101299.78;;;17.52;32.36
77017;BME280;65949;53.132;17.930;2023-05-10T08:30:53;101295.73;;;17.50;32.42
77017;BME280;65949;53.132;17.930;2023-05-10T08:33:20;101294.46;;;17.52;32.35
77017;BME280;65949;53.132;17.930;2023-05-10T08:35:46;101303.38;;;17.55;32.59
77017;BME280;65949;53.132;17.930;2023-05-10T08:38:13;101303.25;;;17.61;32.41
77017;BME280;65949;53.132;17.930;2023-05-10T08:40:43;101306.67;;;17.70;32.27
77017;BME280;65949;53.132;17.930;2023-05-10T08:43:12;101308.15;;;17.77;32.37
77017;BME280;65949;53.132;17.930;2023-05-10T08:45:41;101305.84;;;17.85;32.16
77017;BME280;65949;53.132;17.930;2023-05-10T08:48:10;101307.52;;;17.89;32.47
77017;BME280;65949;53.132;17.930;2023-05-10T08:50:38;101299.45;;;17.94;32.24
77017;BME280;65949;53.132;17.930;2023-05-10T08:53:13;101306.45;;;17.98;32.53
77017;BME280;65949;53.132;17.930;2023-05-10T08:55:40;101303.54;;;18.03;32.05
77017;BME280;65949;53.132;17.930;2023-05-10T08:58:09;101301.23;;;18.02;32.20
77017;BME280;65949;53.132;17.930;2023-05-10T09:00:36;101298.91;;;18.02;31.94
77017;BME280;65949;53.132;17.930;2023-05-10T09:03:06;101300.66;;;18.01;31.67
77017;BME280;65949;53.132;17.930;2023-05-10T09:05:33;101296.73;;;18.00;31.54
77017;BME280;65949;53.132;17.930;2023-05-10T09:08:00;101300.77;;;18.00;31.83
77017;BME280;65949;53.132;17.930;2023-05-10T09:10:29;101303.84;;;18.03;32.00
77017;BME280;65949;53.132;17.930;2023-05-10T09:12:57;101299.83;;;18.08;31.97
77017;BME280;65949;53.132;17.930;2023-05-10T09:15:24;101298.52;;;18.17;32.18
77017;BME280;65949;53.132;17.930;2023-05-10T09:17:51;101295.27;;;18.27;32.03
77017;BME280;65949;53.132;17.930;2023-05-10T09:20:18;101297.16;;;18.40;32.00
77017;BME280;65949;53.132;17.930;2023-05-10T09:22:46;101295.64;;;18.52;31.85
77017;BME280;65949;53.132;17.930;2023-05-10T09:25:14;101291.77;;;18.62;31.60
77017;BME280;65949;53.132;17.930;2023-05-10T09:27:46;101299.41;;;18.63;31.11
77017;BME280;65949;53.132;17.930;2023-05-10T09:32:45;101294.95;;;18.62;31.09
77017;BME280;65949;53.132;17.930;2023-05-10T09:35:15;101294.13;;;18.67;31.06
77017;BME280;65949;53.132;17.930;2023-05-10T09:37:44;101292.34;;;18.73;31.14
77017;BME280;65949;53.132;17.930;2023-05-10T09:40:15;101294.84;;;18.81;31.03
77017;BME280;65949;53.132;17.930;2023-05-10T09:42:49;101291.34;;;18.91;31.43
77017;BME280;65949;53.132;17.930;2023-05-10T09:45:16;101290.55;;;18.99;31.27
77017;BME280;65949;53.132;17.930;2023-05-10T09:47:44;101288.48;;;19.05;30.58
77017;BME280;65949;53.132;17.930;2023-05-10T09:50:11;101287.84;;;19.00;30.24
77017;BME280;65949;53.132;17.930;2023-05-10T09:52:51;101296.92;;;18.97;30.45
77017;BME280;65949;53.132;17.930;2023-05-10T09:55:21;101288.15;;;18.94;30.41
77017;BME280;65949;53.132;17.930;2023-05-10T09:57:49;101282.67;;;18.94;30.77
77017;BME280;65949;53.132;17.930;2023-05-10T10:00:24;101286.83;;;19.00;30.91
77017;BME280;65949;53.132;17.930;2023-05-10T10:02:56;101284.02;;;19.08;30.71
77017;BME280;65949;53.132;17.930;2023-05-10T10:05:34;101277.02;;;19.11;30.77
77017;BME280;65949;53.132;17.930;2023-05-10T10:08:05;101274.47;;;19.14;31.01
77017;BME280;65949;53.132;17.930;2023-05-10T10:10:32;101269.02;;;19.22;30.90
77017;BME280;65949;53.132;17.930;2023-05-10T10:12:59;101266.45;;;19.28;31.15
77017;BME280;65949;53.132;17.930;2023-05-10T10:15:26;101266.42;;;19.34;30.88
77017;BME280;65949;53.132;17.930;2023-05-10T10:17:53;101259.29;;;19.39;30.33
77017;BME280;65949;53.132;17.930;2023-05-10T10:20:22;101256.13;;;19.37;30.20
77017;BME280;65949;53.132;17.930;2023-05-10T10:22:49;101246.33;;;19.35;30.17
77017;BME280;65949;53.132;17.930;2023-05-10T10:25:17;101254.63;;;19.24;30.30
77017;BME280;65949;53.132;17.930;2023-05-10T10:27:57;101251.56;;;19.29;31.15
77017;BME280;65949;53.132;17.930;2023-05-10T10:30:30;101253.77;;;19.41;30.88
77017;BME280;65949;53.132;17.930;2023-05-10T10:33:18;101259.20;;;19.46;30.18
77017;BME280;65949;53.132;17.930;2023-05-10T10:35:52;101258.81;;;19.40;29.93
77017;BME280;65949;53.132;17.930;2023-05-10T10:38:20;101250.52;;;19.39;29.79
77017;BME280;65949;53.132;17.930;2023-05-10T10:40:47;101250.60;;;19.30;29.89
77017;BME280;65949;53.132;17.930;2023-05-10T10:43:25;101245.34;;;19.29;30.67
77017;BME280;65949;53.132;17.930;2023-05-10T10:46:22;101251.83;;;19.34;30.03
77017;BME280;65949;53.132;17.930;2023-05-10T10:48:51;101249.59;;;19.40;30.19
77017;BME280;65949;53.132;17.930;2023-05-10T10:51:37;101249.13;;;19.47;29.87
77017;BME280;65949;53.132;17.930;2023-05-10T10:54:11;101243.05;;;19.45;29.71
77017;BME280;65949;53.132;17.930;2023-05-10T10:56:38;101240.84;;;19.46;30.65
77017;BME280;65949;53.132;17.930;2023-05-10T10:59:04;101234.09;;;19.54;30.53
77017;BME280;65949;53.132;17.930;2023-05-10T11:01:34;101228.73;;;19.62;29.86
77017;BME280;65949;53.132;17.930;2023-05-10T11:06:31;101236.99;;;19.70;30.18
77017;BME280;65949;53.132;17.930;2023-05-10T11:08:59;101235.69;;;19.77;29.91
77017;BME280;65949;53.132;17.930;2023-05-10T11:11:31;101240.61;;;19.82;30.30
77017;BME280;65949;53.132;17.930;2023-05-10T11:14:03;101237.84;;;19.89;29.89
77017;BME280;65949;53.132;17.930;2023-05-10T11:16:42;101235.63;;;19.91;30.31
77017;BME280;65949;53.132;17.930;2023-05-10T11:19:13;101225.00;;;19.95;29.86
77017;BME280;65949;53.132;17.930;2023-05-10T11:21:51;101230.75;;;19.92;30.02
77017;BME280;65949;53.132;17.930;2023-05-10T11:24:20;101225.84;;;19.98;30.02
77017;BME280;65949;53.132;17.930;2023-05-10T11:26:50;101240.03;;;20.04;30.07
77017;BME280;65949;53.132;17.930;2023-05-10T11:29:17;101237.91;;;20.06;29.77
77017;BME280;65949;53.132;17.930;2023-05-10T11:31:45;101233.80;;;20.06;29.73
77017;BME280;65949;53.132;17.930;2023-05-10T11:34:33;101224.34;;;20.03;29.54
77017;BME280;65949;53.132;17.930;2023-05-10T11:37:00;101221.11;;;19.99;29.96
77017;BME280;65949;53.132;17.930;2023-05-10T11:39:28;101219.09;;;19.99;30.37
77017;BME280;65949;53.132;17.930;2023-05-10T11:41:56;101221.98;;;20.04;29.94
77017;BME280;65949;53.132;17.930;2023-05-10T11:44:23;101225.14;;;20.05;29.97
77017;BME280;65949;53.132;17.930;2023-05-10T11:46:51;101227.67;;;20.05;29.31
77017;BME280;65949;53.132;17.930;2023-05-10T11:49:18;101225.56;;;20.03;29.32
77017;BME280;65949;53.132;17.930;2023-05-10T11:51:44;101220.15;;;19.99;29.33
77017;BME280;65949;53.132;17.930;2023-05-10T11:54:12;101220.38;;;20.01;29.10
77017;BME280;65949;53.132;17.930;2023-05-10T11:56:39;101218.66;;;19.99;28.74
77017;BME280;65949;53.132;17.930;2023-05-10T11:59:07;101219.82;;;20.00;28.84
77017;BME280;65949;53.132;17.930;2023-05-10T12:01:34;101216.27;;;20.01;29.11
77017;BME280;65949;53.132;17.930;2023-05-10T12:04:01;101217.90;;;20.07;29.05
77017;BME280;65949;53.132;17.930;2023-05-10T12:06:32;101216.65;;;20.06;29.51
77017;BME280;65949;53.132;17.930;2023-05-10T12:09:07;101211.09;;;20.16;29.52
77017;BME280;65949;53.132;17.930;2023-05-10T12:11:37;101212.91;;;20.30;29.46
77017;BME280;65949;53.132;17.930;2023-05-10T12:14:05;101208.45;;;20.44;29.25
77017;BME280;65949;53.132;17.930;2023-05-10T12:16:32;101210.66;;;20.52;28.99
77017;BME280;65949;53.132;17.930;2023-05-10T12:19:00;101209.39;;;20.52;29.05
77017;BME280;65949;53.132;17.930;2023-05-10T12:21:28;101210.48;;;20.57;28.95
77017;BME280;65949;53.132;17.930;2023-05-10T12:23:59;101206.61;;;20.54;28.26
77017;BME280;65949;53.132;17.930;2023-05-10T12:26:28;101207.34;;;20.47;28.11
77017;BME280;65949;53.132;17.930;2023-05-10T12:28:55;101212.66;;;20.40;28.27
77017;BME280;65949;53.132;17.930;2023-05-10T12:31:53;101209.16;;;20.32;28.42
77017;BME280;65949;53.132;17.930;2023-05-10T12:36:52;101207.56;;;20.36;28.70
77017;BME280;65949;53.132;17.930;2023-05-10T12:39:19;101210.40;;;20.42;28.36
77017;BME280;65949;53.132;17.930;2023-05-10T12:41:46;101211.83;;;20.48;28.64
77017;BME280;65949;53.132;17.930;2023-05-10T12:44:12;101208.14;;;20.59;28.86
77017;BME280;65949;53.132;17.930;2023-05-10T12:46:39;101213.17;;;20.71;28.57
77017;BME280;65949;53.132;17.930;2023-05-10T12:49:05;101217.83;;;20.72;27.84
77017;BME280;65949;53.132;17.930;2023-05-10T12:51:32;101212.86;;;20.73;27.94
77017;BME280;65949;53.132;17.930;2023-05-10T12:53:59;101190.26;;;20.74;27.58
77017;BME280;65949;53.132;17.930;2023-05-10T12:56:25;101206.51;;;20.69;28.30
77017;BME280;65949;53.132;17.930;2023-05-10T12:58:52;101209.84;;;20.71;27.86
77017;BME280;65949;53.132;17.930;2023-05-10T13:01:19;101196.13;;;20.61;27.79
77017;BME280;65949;53.132;17.930;2023-05-10T13:03:45;101196.88;;;20.61;28.07
77017;BME280;65949;53.132;17.930;2023-05-10T13:06:13;101205.80;;;20.62;28.07
77017;BME280;65949;53.132;17.930;2023-05-10T13:08:39;101203.60;;;20.67;28.29
77017;BME280;65949;53.132;17.930;2023-05-10T13:11:07;101196.42;;;20.72;28.32